createdAt,value
2023-03-05T00:01:18.691Z,72.68972182653856
2023-03-05T00:04:16.845Z,73.36264031128862
2023-03-05T00:07:17.192Z,73.39294005285049
2023-03-05T00:11:17.377Z,73.71221309404173
2023-03-05T00:14:17.170Z,74.09795442011357
2023-03-05T00:17:17.585Z,74.0839186093738
2023-03-05T00:21:20.152Z,74.29708782541532
2023-03-05T00:24:18.510Z,75.01957240222609
2023-03-05T00:27:16.603Z,75.09144657262428
2023-03-05T00:31:17.847Z,74.97892637484851
2023-03-05T00:34:19.276Z,75.2287475318007
2023-03-05T00:37:17.190Z,75.76169450902339
2023-03-05T00:41:16.691Z,76.04576251891042
2023-03-05T00:44:16.703Z,76.7235207727274
2023-03-05T00:47:18.701Z,76.62521213244446
2023-03-05T00:51:16.268Z,76.19260537166996
2023-03-05T00:54:16.450Z,75.9098235905827
2023-03-05T00:57:16.481Z,75.24768818955656
2023-03-05T01:01:17.050Z,75.24820465558639
2023-03-05T01:04:17.266Z,75.46869790286533
2023-03-05T01:07:17.253Z,75.3247050618587
2023-03-05T01:11:16.830Z,75.72121364665621
2023-03-05T01:14:17.645Z,75.78638550194444
2023-03-05T01:17:17.202Z,76.03362047865805
2023-03-05T01:21:16.583Z,76.46065685738645
2023-03-05T01:24:16.862Z,76.69038295033302
2023-03-05T01:27:17.079Z,76.81493794076823
2023-03-05T01:31:16.847Z,77.2312771443883
2023-03-05T01:34:18.441Z,77.43345966005222
2023-03-05T01:37:17.089Z,77.44744363801001
2023-03-05T01:41:18.238Z,77.38838231653602
2023-03-05T01:44:21.813Z,77.77356822072987
2023-03-05T01:47:16.845Z,77.56921073324641
2023-03-05T01:51:19.432Z,77.23236122275333
2023-03-05T01:54:20.355Z,77.31540332069497
2023-03-05T01:57:21.077Z,77.41260991961445
2023-03-05T02:01:18.355Z,77.16649232555433
2023-03-05T02:04:18.600Z,77.65368127443185
2023-03-05T02:07:17.693Z,77.81301301340051
2023-03-05T02:11:16.849Z,78.40967204284105
2023-03-05T02:14:17.572Z,78.92427674375172
2023-03-05T02:17:17.500Z,78.32145164713918
2023-03-05T02:21:27.825Z,78.73104498909673
2023-03-05T02:24:31.053Z,79.21391622540558
2023-03-05T02:27:17.302Z,79.32277859535733
2023-03-05T02:31:19.861Z,79.44906981319205
2023-03-05T02:34:17.033Z,79.52663712398376
2023-03-05T02:37:17.068Z,79.54098816626133
2023-03-05T02:41:16.346Z,79.62975200028217
2023-03-05T02:44:16.480Z,79.6866824098246
2023-03-05T02:47:16.218Z,79.89572708398157
2023-03-05T02:51:16.840Z,80.14199833200014
2023-03-05T02:54:16.874Z,80.41546934822527
2023-03-05T02:57:17.436Z,80.85092037848962
2023-03-05T03:01:16.776Z,81.14576801555434
2023-03-05T03:04:16.920Z,80.91605667956436
2023-03-05T03:07:17.159Z,80.83513782871054
2023-03-05T03:11:18.020Z,80.77665131619702
2023-03-05T03:14:17.061Z,81.08741782346284
2023-03-05T03:17:18.317Z,81.56810121215057
2023-03-05T03:21:19.374Z,81.90886220650897
2023-03-05T03:24:16.957Z,82.13355083225257
2023-03-05T03:27:17.074Z,81.98586463767519
2023-03-05T03:31:16.056Z,81.39625996130708
2023-03-05T03:34:16.619Z,80.90023422544817
2023-03-05T03:37:16.350Z,80.96609257150634
2023-03-05T03:41:16.529Z,80.74933423952919
2023-03-05T03:44:19.537Z,80.8157705443845
2023-03-05T03:47:16.953Z,81.03423785521373
2023-03-05T03:51:16.994Z,81.72412844311995
2023-03-05T03:54:18.164Z,81.62763126468225
2023-03-05T03:57:17.174Z,81.76331194938417
2023-03-05T04:01:16.404Z,81.72652390270363
2023-03-05T04:04:16.477Z,81.88392512659729
2023-03-05T04:07:16.534Z,81.7359448640869
2023-03-05T04:11:19.593Z,81.70843231295915
2023-03-05T04:14:16.960Z,81.84434404038758
2023-03-05T04:17:17.288Z,82.13280553043062
2023-03-05T04:21:16.384Z,82.1359179127166
2023-03-05T04:24:16.736Z,82.33649728089743
2023-03-05T04:27:16.956Z,82.30067773814453
2023-03-05T04:31:16.137Z,82.07421417223804
2023-03-05T04:34:16.497Z,82.43531668211853
2023-03-05T04:37:16.443Z,82.49956104669592
2023-03-05T04:41:16.570Z,82.49224452901554
2023-03-05T04:44:18.087Z,82.41726447768548
2023-03-05T04:47:18.133Z,82.23874665496157
2023-03-05T04:51:16.815Z,82.24533695700867
2023-03-05T04:54:17.165Z,82.31482438984627
2023-03-05T04:57:17.220Z,82.70273685682362
2023-03-05T05:01:16.106Z,82.64712350345113
2023-03-05T05:04:16.464Z,83.31270210072766
2023-03-05T05:07:16.521Z,83.66312348187395
2023-03-05T05:11:16.214Z,83.26882056223644
2023-03-05T05:14:17.247Z,83.58280500192194
2023-03-05T05:17:16.669Z,83.09333147933657
2023-03-05T05:21:16.194Z,82.45333025262042
2023-03-05T05:24:16.395Z,82.77425569700794
2023-03-05T05:27:16.436Z,82.97207370074626
2023-03-05T05:31:18.600Z,82.91143021736423
2023-03-05T05:34:16.903Z,82.78512071779217
2023-03-05T05:37:16.620Z,83.13740955693375
2023-03-05T05:41:18.433Z,83.61282321248638
2023-03-05T05:44:17.066Z,83.76483355682792
2023-03-05T05:47:18.106Z,83.8100783933062
2023-03-05T05:51:19.027Z,84.16236740448515
2023-03-05T05:54:16.670Z,84.6581404699449
2023-03-05T05:57:17.044Z,85.00778409000254
2023-03-05T06:01:19.032Z,85.49968358981852
2023-03-05T06:04:16.533Z,86.03016960502721
2023-03-05T06:07:16.279Z,86.51437894314466
2023-03-05T06:11:18.889Z,86.78129252333154
2023-03-05T06:14:16.661Z,87.14245400906343
2023-03-05T06:17:28.700Z,87.54558240358404
2023-03-05T06:21:19.233Z,87.63003139939929
2023-03-05T06:24:19.694Z,87.7416928656971
2023-03-05T06:27:17.230Z,87.422096387592
2023-03-05T06:31:19.215Z,87.05668143218143
2023-03-05T06:34:16.658Z,86.95662009007702
2023-03-05T06:37:16.921Z,87.34647503684661
2023-03-05T06:41:19.304Z,87.45352600910682
2023-03-05T06:44:16.644Z,86.88837024276664
2023-03-05T06:47:16.808Z,86.79334231016287
2023-03-05T06:51:19.189Z,87.09848108418278
2023-03-05T06:54:17.066Z,87.80903201995876
2023-03-05T06:57:16.542Z,88.22821719129438
2023-03-05T07:01:17.950Z,88.7756780203735
2023-03-05T07:04:17.036Z,89.06052726654706
2023-03-05T07:07:17.668Z,89.36565703437984
2023-03-05T07:11:18.437Z,90.01221391224192
2023-03-05T07:14:16.643Z,90.1212938311276
2023-03-05T07:17:16.823Z,90.2514071411958
2023-03-05T07:21:18.804Z,90.59625276809389
2023-03-05T07:24:16.899Z,90.76716906436091
2023-03-05T07:27:16.862Z,91.6483596726486
2023-03-05T07:31:19.987Z,91.76519971104044
2023-03-05T07:34:16.831Z,91.24408801088816
2023-03-05T07:37:16.301Z,91.47468035540236
2023-03-05T07:41:20.794Z,91.40692968628936
2023-03-05T07:44:18.420Z,91.80150952953568
2023-03-05T07:47:19.289Z,91.5669056369956
2023-03-05T07:51:18.009Z,92.07016015308928
2023-03-05T07:54:16.853Z,92.0621916785283
2023-03-05T07:57:16.853Z,92.76384342236238
2023-03-05T08:01:17.032Z,93.04502517439093
2023-03-05T08:04:17.097Z,92.46367105938475
2023-03-05T08:07:17.296Z,92.52865614284673
2023-03-05T08:11:17.081Z,93.24053415813553
2023-03-05T08:14:19.532Z,93.05248079774411
2023-03-05T08:17:17.397Z,92.41449210462994
2023-03-05T08:21:19.163Z,90.84238715584081
2023-03-05T08:24:17.137Z,89.93251991109427
2023-03-05T08:27:16.969Z,88.09879455605406
2023-03-05T08:31:18.968Z,87.02179282203727
2023-03-05T08:34:17.064Z,86.28898762691061
2023-03-05T08:37:16.961Z,87.87188701026484
2023-03-05T08:41:18.541Z,88.91670939782219
2023-03-05T08:44:17.215Z,89.03447440837512
2023-03-05T08:47:17.807Z,88.87190102643896
2023-03-05T08:51:22.116Z,88.26416953412918
2023-03-05T08:54:18.046Z,87.85863991767332
2023-03-05T08:57:16.794Z,87.35445611846986
2023-03-05T09:01:16.518Z,88.00410425003365
2023-03-05T09:04:17.033Z,87.34134974515293
2023-03-05T09:07:17.029Z,86.99639830174381
2023-03-05T09:11:16.384Z,86.46416202542405
2023-03-05T09:14:17.334Z,86.02651282885998
2023-03-05T09:17:16.652Z,84.65630229439849
2023-03-05T09:21:17.680Z,85.10251788870772
2023-03-05T09:24:29.909Z,84.47229692129959
2023-03-05T09:27:16.493Z,84.7801215195833
2023-03-05T09:31:20.762Z,85.7388038709975
2023-03-05T09:34:17.486Z,85.19092017967918
2023-03-05T09:37:17.298Z,85.35806885938713
2023-03-05T09:41:27.898Z,85.36892078703642
2023-03-05T09:44:27.045Z,84.51626338435173
2023-03-05T09:47:31.252Z,83.94609081768668
2023-03-05T09:51:23.630Z,82.97852904571802
2023-03-05T09:54:20.723Z,83.14297547188335
2023-03-05T09:57:22.359Z,82.84131251294244
2023-03-05T10:01:20.357Z,81.8214770798381
2023-03-05T10:04:23.402Z,81.61956568421968
2023-03-05T10:07:22.109Z,79.64664910520865
2023-03-05T10:11:33.500Z,77.91244859621136
2023-03-05T10:14:25.548Z,78.42165195567607
2023-03-05T10:17:34.606Z,79.26298387341939
2023-03-05T10:21:20.320Z,78.16187710842124
2023-03-05T10:24:24.670Z,77.17665841190059
2023-03-05T10:27:20.642Z,76.104586331934
2023-03-05T10:31:36.303Z,76.32918202790134
2023-03-05T10:34:37.475Z,75.2819146935819
2023-03-05T10:37:51.735Z,74.65645827619652
2023-03-05T10:41:26.087Z,70.81219546529627
2023-03-05T10:44:26.428Z,70.59089528641312
2023-03-05T10:47:24.298Z,71.27025480889482
2023-03-05T10:51:22.154Z,70.15003756210874
2023-03-05T10:54:25.124Z,67.83860576922372
2023-03-05T10:57:20.015Z,65.5608474378139
2023-03-05T11:01:22.849Z,65.37504576839363
2023-03-05T11:04:29.100Z,63.396696428641654
2023-03-05T11:07:36.458Z,62.7727935238873
2023-03-05T11:11:19.440Z,61.71125523635709
2023-03-05T11:14:24.259Z,60.53469333808596
2023-03-05T11:17:30.940Z,59.638797273594136
2023-03-05T11:21:21.340Z,58.80440171177334
2023-03-05T11:24:19.080Z,58.592218925241596
2023-03-05T11:27:34.288Z,57.568191552667805
2023-03-05T11:31:23.150Z,59.901176392907956
2023-03-05T11:34:24.414Z,58.580814008687156
2023-03-05T11:37:24.154Z,54.60998247323006
2023-03-05T11:41:19.683Z,54.4961232014273
2023-03-05T11:44:22.119Z,51.91281975761346
2023-03-05T11:47:28.803Z,51.99109426215123
2023-03-05T11:51:24.750Z,49.88777825729932
2023-03-05T11:54:25.750Z,45.624316585754386
2023-03-05T11:57:19.110Z,43.03509550669447
2023-03-05T12:01:20.386Z,43.75943885040403
2023-03-05T12:04:19.829Z,44.706392228663944
2023-03-05T12:07:21.777Z,44.64531593007368
2023-03-05T12:11:20.837Z,44.424943994246476
2023-03-05T12:14:24.442Z,43.05708693276362
2023-03-05T12:17:24.362Z,41.11844256876144
2023-03-05T12:21:28.258Z,42.76264771585235
2023-03-05T12:24:38.300Z,43.00365965628087
2023-03-05T12:27:33.482Z,43.095789761873114
2023-03-05T12:31:28.344Z,40.320284522645636
2023-03-05T12:34:55.456Z,37.821228808144824
2023-03-05T12:38:01.720Z,38.513159495985114
2023-03-05T12:41:43.004Z,35.77021229142836
2023-03-05T12:44:20.954Z,35.77622968974647
2023-03-05T12:47:20.362Z,33.397230402734245
2023-03-05T12:51:40.501Z,36.45658698123433
2023-03-05T12:54:32.274Z,35.068758226549896
2023-03-05T12:57:20.320Z,35.10234144906145
2023-03-05T13:01:31.352Z,35.26206739204275
2023-03-05T13:04:21.832Z,33.86401160593643
2023-03-05T13:07:18.440Z,29.889630543348293
2023-03-05T13:11:20.954Z,32.32502629700333
2023-03-05T13:14:31.528Z,33.43138542066077
2023-03-05T13:18:25.539Z,34.99012918431286
2023-03-05T13:21:18.156Z,34.42714491445913
2023-03-05T13:24:22.382Z,34.40876957380459
2023-03-05T13:27:28.339Z,34.057604536113786
2023-03-05T13:31:18.292Z,31.87768298678417
2023-03-05T13:34:21.035Z,34.11281914629016
2023-03-05T13:37:20.318Z,33.566284376226186
2023-03-05T13:41:21.661Z,33.09993472214232
2023-03-05T13:44:20.234Z,31.787312884909365
2023-03-05T13:47:20.074Z,33.309777085931934
2023-03-05T13:51:16.950Z,32.01948621297205
2023-03-05T13:54:19.182Z,33.400227697256426
2023-03-05T13:57:37.841Z,32.85900476821209
2023-03-05T14:01:27.223Z,34.44025706627723
2023-03-05T14:04:21.088Z,31.886335556965296
2023-03-05T14:07:31.617Z,32.72541099450378
2023-03-05T14:11:26.078Z,33.58134364730407
2023-03-05T14:14:19.065Z,32.350519167809956
2023-03-05T14:17:24.471Z,32.8676590625492
2023-03-05T14:21:17.409Z,33.78216457844101
2023-03-05T14:24:21.436Z,31.92339930540839
2023-03-05T14:27:22.152Z,33.29889797711639
2023-03-05T14:31:23.454Z,31.945999075772246
2023-03-05T14:34:24.888Z,31.549496180014224
2023-03-05T14:37:22.914Z,32.86108029283707
2023-03-05T14:41:40.302Z,32.60824882362851
2023-03-05T14:44:19.467Z,34.569691507759984
2023-03-05T14:47:18.488Z,35.9379697671801
2023-03-05T14:51:20.421Z,34.474050911740754
2023-03-05T14:54:19.999Z,34.76159308886644
2023-03-05T14:57:20.864Z,35.49282839887644
2023-03-05T15:01:17.920Z,36.78495254216409
2023-03-05T15:04:21.005Z,36.3313984670297
2023-03-05T15:07:22.350Z,35.92358844847982
2023-03-05T15:11:20.347Z,36.6022833854775
2023-03-05T15:14:19.335Z,36.98137413428415
2023-03-05T15:17:25.192Z,35.89016545127357
2023-03-05T15:21:18.532Z,35.95968959326966
2023-03-05T15:24:16.591Z,35.63368245147047
2023-03-05T15:27:19.339Z,35.81712337224237
2023-03-05T15:31:18.533Z,35.91062830285915
2023-03-05T15:34:21.049Z,36.60498270103117
2023-03-05T15:37:18.067Z,36.26122668730275
2023-03-05T15:41:18.511Z,36.87071867864821
2023-03-05T15:44:19.904Z,37.89155507429657
2023-03-05T15:47:18.594Z,37.66844192716262
2023-03-05T15:51:21.304Z,38.28207820163011
2023-03-05T15:54:21.040Z,38.85510920456721
2023-03-05T15:57:21.095Z,37.87509025737443
2023-03-05T16:01:19.774Z,37.727324872915474
2023-03-05T16:04:18.262Z,38.3289999130734
2023-03-05T16:07:17.099Z,38.609686995738144
2023-03-05T16:11:19.888Z,39.342456031044776
2023-03-05T16:14:25.643Z,39.15935518354186
2023-03-05T16:17:24.220Z,39.262406647879295
2023-03-05T16:21:18.580Z,40.051880216051636
2023-03-05T16:24:20.408Z,40.71993944892272
2023-03-05T16:27:19.516Z,41.47945696741603
2023-03-05T16:31:17.533Z,42.37532150926715
2023-03-05T16:34:17.372Z,42.728730313657145
2023-03-05T16:37:21.315Z,43.196409533147275
2023-03-05T16:41:18.697Z,43.884095997261916
2023-03-05T16:44:20.308Z,44.15718977562686
2023-03-05T16:47:21.874Z,44.504314975176406
2023-03-05T16:51:19.306Z,45.019872712135225
2023-03-05T16:54:21.824Z,44.973968613246925
2023-03-05T16:57:17.703Z,45.25694924288155
2023-03-05T17:01:22.162Z,45.3802480408712
2023-03-05T17:04:19.149Z,45.561391825765206
2023-03-05T17:07:20.850Z,45.96881211311894
2023-03-05T17:11:18.409Z,46.03416205557015
2023-03-05T17:14:19.938Z,45.935780327646235
2023-03-05T17:17:19.110Z,45.87170363393483
2023-03-05T17:21:16.572Z,45.42033440111472
2023-03-05T17:24:20.179Z,45.04974338294554
2023-03-05T17:27:20.749Z,45.395200997344176
2023-03-05T17:31:18.356Z,44.97296783915491
2023-03-05T17:34:18.351Z,44.79613637152554
2023-03-05T17:37:20.259Z,44.4036995694235
2023-03-05T17:41:18.795Z,43.8691045926218
2023-03-05T17:44:17.273Z,44.208628557467854
2023-03-05T17:47:17.094Z,43.74280816784979
2023-03-05T17:51:17.252Z,43.32212082504648
2023-03-05T17:54:17.386Z,43.0268015748068
2023-03-05T17:57:20.606Z,43.32097868332634
2023-03-05T18:01:24.200Z,43.5976515731165
2023-03-05T18:04:21.738Z,43.551995969742684
2023-03-05T18:07:18.406Z,43.41002749862005
2023-03-05T18:11:17.904Z,43.539583100953294
2023-03-05T18:14:23.566Z,43.43758948545148
2023-03-05T18:17:21.179Z,43.850587836283985
2023-03-05T18:21:23.691Z,44.042639596389265
2023-03-05T18:24:23.412Z,43.798444367792435
2023-03-05T18:27:17.206Z,44.64138787882777
2023-03-05T18:31:20.098Z,44.64161846608334
2023-03-05T18:34:22.417Z,44.533330360096215
2023-03-05T18:37:17.795Z,45.138999441125314
2023-03-05T18:41:20.528Z,45.274656506331844
2023-03-05T18:44:19.781Z,45.070468891038274
2023-03-05T18:47:17.631Z,44.87770503942219
2023-03-05T18:51:19.119Z,45.364125344219076
2023-03-05T18:54:17.844Z,45.793585019963
2023-03-05T18:57:18.100Z,45.656968733127805
2023-03-05T19:01:22.164Z,46.10382754594671
2023-03-05T19:04:17.067Z,46.52066435230129
2023-03-05T19:07:16.598Z,45.59785068486824
2023-03-05T19:11:21.975Z,44.93579913446169
2023-03-05T19:14:21.223Z,45.24131325644924
2023-03-05T19:17:16.785Z,45.54587493433475
2023-03-05T19:21:17.192Z,46.72781166066096
2023-03-05T19:24:16.981Z,46.783587676187636
2023-03-05T19:27:17.163Z,47.24705169983537
2023-03-05T19:31:19.332Z,47.29030089415108
2023-03-05T19:34:21.235Z,47.188144984527455
2023-03-05T19:37:18.759Z,47.897993376157345
2023-03-05T19:41:21.230Z,47.92483844205839
2023-03-05T19:44:17.414Z,48.41106142575776
2023-03-05T19:47:20.848Z,48.765743524228604
2023-03-05T19:51:19.593Z,49.51590318120452
2023-03-05T19:54:19.571Z,49.605171890528226
2023-03-05T19:57:21.161Z,49.91469258148325
2023-03-05T20:01:19.885Z,50.3769164600481
2023-03-05T20:04:21.093Z,50.40403340000184
2023-03-05T20:07:17.279Z,50.886888598833835
2023-03-05T20:11:19.472Z,51.265152057794786
2023-03-05T20:14:19.318Z,51.85026653457916
2023-03-05T20:17:17.620Z,52.090992687920824
2023-03-05T20:21:25.390Z,52.17384750736105
2023-03-05T20:24:22.729Z,52.430860983082184
2023-03-05T20:27:17.426Z,52.868701888855156
2023-03-05T20:31:18.139Z,52.96802135770578
2023-03-05T20:34:19.506Z,53.466431738656794
2023-03-05T20:37:44.748Z,53.57280542274603
2023-03-05T20:41:19.452Z,52.85992077484902
2023-03-05T20:44:19.842Z,53.089097070990185
2023-03-05T20:47:37.443Z,53.244326332699714
2023-03-05T20:51:23.262Z,55.73550021160219
2023-03-05T20:54:18.480Z,56.91610283827049
2023-03-05T20:57:17.267Z,57.14738429620113
2023-03-05T21:01:17.692Z,58.861956693328715
2023-03-05T21:04:19.671Z,59.53859590618017
2023-03-05T21:07:18.214Z,60.30819226081537
2023-03-05T21:11:17.079Z,61.5598506957625
2023-03-05T21:14:17.201Z,61.52815496630837
2023-03-05T21:17:18.680Z,61.84300238225327
2023-03-05T21:21:20.253Z,62.52010883178455
2023-03-05T21:24:29.381Z,62.84200023436365
2023-03-05T21:27:17.137Z,62.87514831883955
2023-03-05T21:31:19.547Z,60.82987151038811
2023-03-05T21:34:17.513Z,60.982486014182584
2023-03-05T21:37:18.477Z,62.03023735195428
2023-03-05T21:41:17.270Z,61.73221473139573
2023-03-05T21:44:18.102Z,59.86616827178521
2023-03-05T21:47:17.123Z,58.16268225620638
2023-03-05T21:51:52.494Z,56.98656318261723
2023-03-05T21:54:17.876Z,57.549236651013935
2023-03-05T21:57:17.751Z,57.66920395786453
2023-03-05T22:01:18.263Z,56.0731661755201
2023-03-05T22:04:16.937Z,55.99245846872528
2023-03-05T22:07:18.471Z,55.50416595955967
2023-03-05T22:11:17.880Z,55.37730780387767
2023-03-05T22:14:18.664Z,55.365589390696194
2023-03-05T22:17:17.336Z,55.93821226352282
2023-03-05T22:21:19.698Z,56.025074831033976
2023-03-05T22:24:17.147Z,55.654214659915134
2023-03-05T22:27:17.693Z,55.28768131878841
2023-03-05T22:31:21.371Z,55.3936155468405
2023-03-05T22:34:16.438Z,55.676365168724885
2023-03-05T22:37:16.935Z,56.082777291852175
2023-03-05T22:41:19.056Z,55.61775964979832
2023-03-05T22:44:17.453Z,55.621397712500446
2023-03-05T22:47:17.212Z,55.63029392505267
2023-03-05T22:51:18.847Z,54.805622612919876
2023-03-05T22:54:17.167Z,55.06673747029198
2023-03-05T22:57:17.132Z,55.14941821677802
